Terminal Aerodrome Forecast
Issued by NWS

Current Version | Previous Version | Graphics & Text | Print | Product List | Glossary On
Versions: 1 2 3 4 5 6 7 8 9 10 11 12 13 14 15 16 17 18 19
198
FTUS41 KILN 230533
TAFLCK
TAF
KLCK 230533Z 2306/2406 VRB03KT P6SM SKC
      TEMPO 2309/2312 5SM BR
     FM231200 13004KT P6SM SKC
     FM231600 16006KT P6SM FEW040 SCT250
     FM240000 13004KT P6SM SCT250=

USA.gov is the U.S. government's official web portal to all federal, state and local government web resources and services.